createdAt,value
2022-12-01T00:01:21.475Z,98.87
2022-12-01T00:03:48.615Z,98.94
2022-12-01T00:06:19.392Z,98.93
2022-12-01T00:09:21.104Z,98.30
2022-12-01T00:11:48.819Z,99.44
2022-12-01T00:14:16.502Z,98.24
2022-12-01T00:16:44.737Z,99.13
2022-12-01T00:19:11.776Z,99.03
2022-12-01T00:21:38.777Z,98.40
2022-12-01T00:24:07.186Z,98.61
2022-12-01T00:26:34.013Z,98.91
2022-12-01T00:29:00.985Z,97.99
2022-12-01T00:31:28.293Z,99.44
2022-12-01T00:33:56.052Z,98.55
2022-12-01T00:36:24.099Z,99.53
2022-12-01T00:38:55.289Z,98.93
2022-12-01T00:41:23.606Z,98.61
2022-12-01T00:43:51.306Z,99.20
2022-12-01T00:46:18.691Z,98.50
2022-12-01T00:48:45.559Z,98.16
2022-12-01T00:51:12.662Z,99.27
2022-12-01T00:53:39.539Z,99.02
2022-12-01T00:56:06.662Z,98.25
2022-12-01T00:58:33.518Z,98.73
2022-12-01T01:01:01.973Z,99.17
2022-12-01T01:03:30.177Z,98.71
2022-12-01T01:06:03.163Z,98.83
2022-12-01T01:08:30.034Z,98.86
2022-12-01T01:10:59.770Z,98.54
2022-12-01T01:13:26.745Z,99.17
2022-12-01T01:16:02.522Z,98.83
2022-12-01T01:18:29.749Z,98.59
2022-12-01T01:21:07.932Z,98.91
2022-12-01T01:23:37.879Z,98.18
2022-12-01T01:26:07.894Z,98.45
2022-12-01T01:28:34.905Z,98.75
2022-12-01T01:31:06.715Z,98.57
2022-12-01T01:33:33.879Z,97.84
2022-12-01T01:36:02.236Z,97.91
2022-12-01T01:38:29.937Z,98.25
2022-12-01T01:40:57.080Z,97.72
2022-12-01T01:43:42.453Z,98.51
2022-12-01T01:46:18.951Z,97.76
2022-12-01T01:49:00.273Z,98.22
2022-12-01T01:51:40.458Z,97.89
2022-12-01T01:54:17.932Z,98.01
2022-12-01T01:56:46.477Z,98.13
2022-12-01T01:59:17.385Z,98.39
2022-12-01T02:01:45.789Z,97.88
2022-12-01T02:04:14.133Z,98.74
2022-12-01T02:06:41.008Z,98.37
2022-12-01T02:09:12.456Z,97.90
2022-12-01T02:12:14.722Z,98.12
2022-12-01T02:15:17.082Z,98.26
2022-12-01T02:18:07.325Z,99.10
2022-12-01T02:20:55.119Z,98.35
2022-12-01T02:23:47.874Z,98.54
2022-12-01T02:26:36.670Z,98.14
2022-12-01T02:29:38.448Z,98.87
2022-12-01T02:32:12.515Z,98.49
2022-12-01T02:35:05.781Z,97.50
2022-12-01T02:37:59.444Z,98.84
2022-12-01T02:40:50.009Z,97.70
2022-12-01T02:43:33.070Z,98.19
2022-12-01T02:46:07.932Z,99.09
2022-12-01T02:48:37.454Z,98.49
2022-12-01T02:51:26.823Z,97.88
2022-12-01T02:53:55.727Z,98.32
2022-12-01T02:56:24.201Z,98.43
2022-12-01T02:58:51.334Z,98.74
2022-12-01T03:01:46.176Z,98.97
2022-12-01T03:04:25.061Z,98.42
2022-12-01T03:07:13.372Z,98.59
2022-12-01T03:09:49.794Z,97.33
2022-12-01T03:12:19.842Z,98.62
2022-12-01T03:15:01.785Z,98.16
2022-12-01T03:17:36.361Z,97.86
2022-12-01T03:20:11.862Z,97.98
2022-12-01T03:22:48.975Z,98.37
2022-12-01T03:25:17.714Z,97.59
2022-12-01T03:28:19.325Z,97.98
2022-12-01T03:30:39.082Z,97.82
2022-12-01T03:33:10.706Z,97.35
2022-12-01T03:36:10.594Z,97.74
2022-12-01T03:38:38.414Z,97.97
2022-12-01T03:41:15.472Z,98.08
2022-12-01T03:43:49.927Z,98.26
2022-12-01T03:47:00.988Z,98.30
2022-12-01T03:49:29.091Z,97.62
2022-12-01T03:52:17.601Z,97.58
2022-12-01T03:54:55.517Z,97.29
2022-12-01T03:57:36.175Z,97.27
2022-12-01T04:00:04.548Z,97.60
2022-12-01T04:02:40.489Z,98.24
2022-12-01T04:05:09.493Z,97.41
2022-12-01T04:07:37.617Z,96.85
2022-12-01T04:10:05.655Z,97.22
2022-12-01T04:12:33.358Z,97.60
2022-12-01T04:15:05.774Z,97.75
2022-12-01T04:17:32.748Z,97.85
2022-12-01T04:20:00.128Z,98.31
2022-12-01T04:22:27.635Z,97.77
2022-12-01T04:24:54.492Z,97.83
2022-12-01T04:27:21.760Z,97.40
2022-12-01T04:29:48.962Z,97.98
2022-12-01T04:32:16.493Z,96.94
2022-12-01T04:34:43.633Z,98.04
2022-12-01T04:37:12.223Z,97.00
2022-12-01T04:39:39.230Z,97.35
2022-12-01T04:42:06.257Z,96.91
2022-12-01T04:44:35.218Z,97.28
2022-12-01T04:47:03.983Z,97.22
2022-12-01T04:49:31.441Z,96.85
2022-12-01T04:51:58.702Z,97.42
2022-12-01T04:54:26.912Z,97.16
2022-12-01T04:56:53.873Z,97.40
2022-12-01T04:59:21.000Z,97.60
2022-12-01T05:01:48.405Z,97.83
2022-12-01T05:04:16.102Z,98.16
2022-12-01T05:06:43.646Z,97.04
2022-12-01T05:09:17.565Z,97.05
2022-12-01T05:11:45.175Z,97.74
2022-12-01T05:14:12.206Z,96.99
2022-12-01T05:16:39.325Z,97.23
2022-12-01T05:19:25.473Z,97.88
2022-12-01T05:21:52.855Z,96.98
2022-12-01T05:24:20.764Z,97.87
2022-12-01T05:26:48.164Z,97.54
2022-12-01T05:29:15.247Z,97.42
2022-12-01T05:31:42.448Z,97.17
2022-12-01T05:34:09.563Z,97.84
2022-12-01T05:36:36.966Z,97.15
2022-12-01T05:39:04.543Z,97.50
2022-12-01T05:41:31.749Z,98.19
2022-12-01T05:43:58.815Z,97.68
2022-12-01T05:46:25.951Z,97.92
2022-12-01T05:48:52.890Z,97.87
2022-12-01T05:51:19.847Z,97.29
2022-12-01T05:53:46.764Z,96.78
2022-12-01T05:56:13.697Z,97.20
2022-12-01T05:58:40.630Z,98.10
2022-12-01T06:01:07.607Z,96.90
2022-12-01T06:03:34.546Z,97.59
2022-12-01T06:06:01.803Z,97.58
2022-12-01T06:08:28.872Z,97.08
2022-12-01T06:10:55.769Z,97.42
2022-12-01T06:13:22.734Z,98.11
2022-12-01T06:15:57.656Z,96.72
2022-12-01T06:18:25.730Z,97.53
2022-12-01T06:20:52.668Z,97.79
2022-12-01T06:23:19.582Z,97.57
2022-12-01T06:25:46.537Z,97.72
2022-12-01T06:28:13.829Z,96.96
2022-12-01T06:30:40.738Z,97.59
2022-12-01T06:33:08.085Z,97.48
2022-12-01T06:35:35.714Z,97.93
2022-12-01T06:38:02.633Z,97.21
2022-12-01T06:40:29.661Z,97.30
2022-12-01T06:43:00.768Z,97.70
2022-12-01T06:45:27.802Z,97.38
2022-12-01T06:47:55.682Z,97.19
2022-12-01T06:50:22.915Z,97.37
2022-12-01T06:52:49.975Z,97.35
2022-12-01T06:55:16.867Z,96.98
2022-12-01T06:57:43.840Z,97.48
2022-12-01T07:00:13.531Z,97.85
2022-12-01T07:02:41.169Z,97.27
2022-12-01T07:05:08.430Z,97.12
2022-12-01T07:07:37.394Z,96.79
2022-12-01T07:10:04.775Z,97.61
2022-12-01T07:12:32.012Z,97.47
2022-12-01T07:14:58.960Z,97.44
2022-12-01T07:17:25.967Z,96.85
2022-12-01T07:19:52.867Z,97.73
2022-12-01T07:22:20.003Z,97.33
2022-12-01T07:24:47.239Z,97.00
2022-12-01T07:27:14.228Z,97.34
2022-12-01T07:29:41.148Z,97.15
2022-12-01T07:32:08.115Z,97.32
2022-12-01T07:34:35.147Z,97.36
2022-12-01T07:37:01.994Z,97.06
2022-12-01T07:39:28.944Z,96.96
2022-12-01T07:41:55.840Z,97.48
2022-12-01T07:44:22.884Z,97.02
2022-12-01T07:46:49.793Z,96.96
2022-12-01T07:49:16.713Z,97.70
2022-12-01T07:51:43.559Z,96.99
2022-12-01T07:54:14.309Z,97.31
2022-12-01T07:56:41.525Z,96.90
2022-12-01T07:59:08.958Z,97.07
2022-12-01T08:01:38.283Z,96.69
2022-12-01T08:04:07.289Z,97.62
2022-12-01T08:06:34.381Z,96.67
2022-12-01T08:09:01.294Z,96.05
2022-12-01T08:11:32.133Z,96.74
2022-12-01T08:13:59.106Z,97.38
2022-12-01T08:16:26.107Z,96.76
2022-12-01T08:18:53.745Z,97.23
2022-12-01T08:21:22.462Z,96.37
2022-12-01T08:23:53.423Z,96.78
2022-12-01T08:26:21.435Z,97.24
2022-12-01T08:28:48.489Z,97.62
2022-12-01T08:31:30.545Z,97.17
2022-12-01T08:33:58.212Z,96.64
2022-12-01T08:36:25.923Z,97.20
2022-12-01T08:38:54.689Z,97.44
2022-12-01T08:41:21.935Z,97.39
2022-12-01T08:43:58.066Z,96.93
2022-12-01T08:46:33.233Z,96.76
2022-12-01T08:49:00.486Z,97.44
2022-12-01T08:51:27.614Z,97.14
2022-12-01T08:53:57.108Z,96.74
2022-12-01T08:56:29.019Z,97.43
2022-12-01T08:58:56.453Z,96.43
2022-12-01T09:01:25.798Z,97.05
2022-12-01T09:04:11.117Z,96.89
2022-12-01T09:06:41.177Z,96.96
2022-12-01T09:09:12.669Z,97.80
2022-12-01T09:11:40.647Z,97.36
2022-12-01T09:14:07.591Z,97.74
2022-12-01T09:16:34.613Z,97.88
2022-12-01T09:19:02.094Z,96.85
2022-12-01T09:21:31.214Z,97.12
2022-12-01T09:23:59.337Z,96.70
2022-12-01T09:26:27.068Z,97.31
2022-12-01T09:28:59.391Z,96.45
2022-12-01T09:31:26.963Z,96.35
2022-12-01T09:34:00.255Z,97.02
2022-12-01T09:36:28.515Z,96.51
2022-12-01T09:38:58.477Z,96.76
2022-12-01T09:41:36.991Z,97.33
2022-12-01T09:44:23.685Z,97.17
2022-12-01T10:18:51.821Z,98.58
2022-12-01T10:21:21.306Z,98.05
2022-12-01T10:24:15.600Z,99.41
2022-12-01T10:27:08.558Z,98.21
2022-12-01T10:29:47.951Z,97.85
2022-12-01T10:32:20.151Z,98.23
2022-12-01T10:34:48.169Z,98.52
2022-12-01T10:37:25.218Z,98.87
2022-12-01T10:39:54.757Z,99.01
2022-12-01T10:42:42.318Z,98.02
2022-12-01T10:45:27.555Z,98.81
2022-12-01T10:48:15.911Z,99.02
2022-12-01T10:50:44.012Z,98.75
2022-12-01T10:53:33.719Z,98.17
2022-12-01T10:56:19.750Z,98.33
2022-12-01T10:58:58.037Z,98.41
2022-12-01T11:01:32.198Z,98.39
2022-12-01T11:04:45.763Z,98.44
2022-12-01T11:07:35.294Z,98.18
2022-12-01T11:10:23.347Z,99.18
2022-12-01T11:13:16.021Z,98.65
2022-12-01T11:15:52.901Z,98.43
2022-12-01T11:18:28.441Z,97.82
2022-12-01T11:21:25.398Z,98.16
2022-12-01T11:23:54.398Z,97.84
2022-12-01T11:26:26.282Z,98.27
2022-12-01T11:29:02.049Z,98.32
2022-12-01T11:31:45.850Z,98.48
2022-12-01T11:34:22.171Z,98.22
2022-12-01T11:36:53.437Z,98.03
2022-12-01T11:39:26.004Z,98.09
2022-12-01T11:41:58.672Z,98.24
2022-12-01T11:44:50.460Z,97.92
2022-12-01T11:47:24.442Z,97.22
2022-12-01T11:50:07.027Z,97.86
2022-12-01T11:52:45.051Z,97.31
2022-12-01T11:55:11.920Z,98.19
2022-12-01T11:57:44.639Z,97.88
2022-12-01T12:00:17.926Z,97.50
2022-12-01T12:03:09.889Z,97.80
2022-12-01T12:05:45.923Z,97.12
2022-12-01T12:08:35.367Z,96.84
2022-12-01T12:11:19.174Z,97.04
2022-12-01T12:13:52.170Z,97.52
2022-12-01T12:16:39.151Z,97.18
2022-12-01T12:19:18.369Z,97.07
2022-12-01T12:22:07.658Z,97.43
2022-12-01T12:24:55.778Z,97.53
2022-12-01T12:27:28.242Z,97.02
2022-12-01T12:30:24.434Z,96.95
2022-12-01T12:33:22.494Z,96.74
2022-12-01T12:36:14.980Z,96.97
2022-12-01T12:39:18.212Z,96.86
2022-12-01T12:41:56.147Z,97.20
2022-12-01T12:45:11.227Z,97.87
2022-12-01T12:48:01.007Z,96.96
2022-12-01T12:50:43.116Z,97.33
2022-12-01T12:53:18.127Z,97.52
2022-12-01T12:55:49.901Z,96.88
2022-12-01T12:58:34.350Z,97.87
2022-12-01T13:01:07.122Z,97.04
2022-12-01T13:03:52.050Z,96.71
2022-12-01T13:06:28.051Z,97.76
2022-12-01T13:09:08.126Z,97.01
2022-12-01T13:11:58.025Z,97.50
2022-12-01T13:14:31.976Z,96.95
2022-12-01T13:17:06.905Z,96.81
2022-12-01T13:19:40.502Z,96.66
2022-12-01T13:22:08.958Z,97.57
2022-12-01T13:24:36.229Z,96.95
2022-12-01T13:27:07.643Z,97.21
2022-12-01T13:29:43.680Z,97.22
2022-12-01T13:32:25.981Z,97.32
2022-12-01T13:34:53.349Z,97.23
2022-12-01T13:37:28.411Z,96.64
2022-12-01T13:39:56.723Z,96.39
2022-12-01T13:42:25.943Z,97.18
2022-12-01T13:44:55.896Z,96.75
2022-12-01T13:47:47.686Z,96.25
2022-12-01T13:50:36.147Z,96.67
2022-12-01T13:53:20.404Z,96.94
2022-12-01T13:56:16.476Z,96.90
2022-12-01T13:58:53.548Z,96.80
2022-12-01T14:01:20.972Z,96.56
2022-12-01T14:03:57.344Z,96.67
2022-12-01T14:06:36.072Z,96.46
2022-12-01T14:09:27.441Z,96.00
2022-12-01T14:12:06.571Z,96.70
2022-12-01T14:14:43.893Z,96.13
2022-12-01T14:17:34.232Z,96.81
2022-12-01T14:20:08.782Z,95.87
2022-12-01T14:22:43.931Z,96.62
2022-12-01T14:25:20.077Z,96.99
2022-12-01T14:27:50.968Z,97.34
2022-12-01T14:30:39.134Z,96.28
2022-12-01T14:33:43.400Z,96.18
2022-12-01T14:36:18.331Z,96.77
2022-12-01T14:38:46.312Z,97.06
2022-12-01T14:41:22.897Z,96.09
2022-12-01T14:44:04.329Z,96.25
2022-12-01T14:46:46.018Z,96.14
2022-12-01T14:49:22.661Z,96.21
2022-12-01T14:51:52.863Z,96.90
2022-12-01T14:54:44.071Z,97.07
2022-12-01T14:57:16.921Z,96.40
2022-12-01T14:59:44.907Z,97.55
2022-12-01T15:02:13.974Z,97.45
2022-12-01T15:05:06.555Z,97.99
2022-12-01T15:07:38.990Z,97.18
2022-12-01T15:10:07.013Z,97.29
2022-12-01T15:12:33.955Z,97.32
2022-12-01T15:15:00.885Z,97.36
2022-12-01T15:17:37.140Z,98.06
2022-12-01T15:20:25.044Z,97.95
2022-12-01T15:22:53.155Z,97.66
2022-12-01T15:25:20.162Z,97.50
2022-12-01T15:28:02.295Z,97.30
2022-12-01T15:30:30.175Z,97.35
2022-12-01T15:32:58.365Z,97.46
2022-12-01T15:35:25.705Z,96.94
2022-12-01T15:37:53.579Z,97.17
2022-12-01T15:41:06.291Z,97.38
2022-12-01T15:43:22.238Z,97.17
2022-12-01T15:45:55.967Z,96.96
2022-12-01T15:48:41.752Z,98.13
2022-12-01T15:51:16.274Z,97.89
2022-12-01T15:53:55.467Z,97.38
2022-12-01T15:56:38.308Z,98.32
2022-12-01T15:59:24.441Z,97.38
2022-12-01T16:01:51.462Z,98.07
2022-12-01T16:04:32.452Z,97.69
2022-12-01T16:07:06.962Z,97.62
2022-12-01T16:09:37.697Z,98.56
2022-12-01T16:12:16.328Z,98.41
2022-12-01T16:15:14.422Z,98.59
2022-12-01T16:17:53.089Z,97.93
2022-12-01T16:20:35.658Z,98.14
2022-12-01T16:23:18.930Z,97.49
2022-12-01T16:25:48.044Z,97.88
2022-12-01T16:28:24.909Z,97.69
2022-12-01T16:30:52.849Z,98.32
2022-12-01T16:33:24.269Z,98.12
2022-12-01T16:35:51.977Z,97.33
2022-12-01T16:38:22.599Z,97.95
2022-12-01T16:40:52.258Z,97.45
2022-12-01T16:43:22.358Z,97.14
2022-12-01T16:45:53.013Z,97.45
2022-12-01T16:48:20.562Z,97.89
2022-12-01T16:50:52.257Z,97.65
2022-12-01T16:53:20.855Z,98.31
2022-12-01T16:55:56.352Z,97.94
2022-12-01T16:58:23.393Z,97.89
2022-12-01T17:00:53.524Z,97.82
2022-12-01T17:03:25.120Z,97.68
2022-12-01T17:05:53.041Z,97.80
2022-12-01T17:08:20.865Z,98.45
2022-12-01T17:10:50.380Z,98.50
2022-12-01T17:13:19.034Z,97.87
2022-12-01T17:15:49.074Z,97.88
2022-12-01T17:18:18.346Z,98.39
2022-12-01T17:20:55.809Z,98.10
2022-12-01T17:23:22.653Z,97.55
2022-12-01T17:25:49.889Z,97.96
2022-12-01T17:28:17.869Z,97.40
2022-12-01T17:30:45.393Z,97.80
2022-12-01T17:33:12.655Z,98.03
2022-12-01T17:35:40.028Z,97.95
2022-12-01T17:38:07.548Z,98.72
2022-12-01T17:40:34.762Z,97.79
2022-12-01T17:43:01.980Z,97.55
2022-12-01T17:45:28.994Z,97.56
2022-12-01T17:47:56.015Z,98.98
2022-12-01T17:50:24.760Z,98.13
2022-12-01T17:52:51.898Z,98.66
2022-12-01T17:55:19.737Z,98.60
2022-12-01T17:57:46.770Z,97.63
2022-12-01T18:00:14.424Z,98.33
2022-12-01T18:02:41.396Z,98.36
2022-12-01T18:05:08.841Z,98.19
2022-12-01T18:07:35.931Z,98.33
2022-12-01T18:10:02.940Z,97.45
2022-12-01T18:12:29.823Z,97.74
2022-12-01T18:14:56.846Z,98.03
2022-12-01T18:17:23.931Z,98.73
2022-12-01T18:19:50.817Z,97.96
2022-12-01T18:22:17.796Z,98.13
2022-12-01T18:24:44.649Z,98.62
2022-12-01T18:27:11.548Z,98.59
2022-12-01T18:29:38.493Z,98.35
2022-12-01T18:32:05.426Z,97.98
2022-12-01T18:34:32.496Z,98.39
2022-12-01T18:37:02.162Z,98.36
2022-12-01T18:39:29.489Z,98.51
2022-12-01T18:41:56.365Z,98.69
2022-12-01T18:44:23.692Z,98.51
2022-12-01T18:46:50.976Z,98.03
2022-12-01T18:49:18.095Z,98.00
2022-12-01T18:51:45.085Z,98.25
2022-12-01T18:54:13.883Z,98.22
2022-12-01T18:56:40.980Z,98.75
2022-12-01T18:59:10.250Z,98.57
2022-12-01T19:01:40.358Z,98.39
2022-12-01T19:04:09.136Z,98.79
2022-12-01T19:06:38.361Z,98.92
2022-12-01T19:09:08.162Z,98.08
2022-12-01T19:11:35.307Z,98.24
2022-12-01T19:14:03.820Z,98.85
2022-12-01T19:16:31.253Z,98.39
2022-12-01T19:18:58.674Z,99.02
2022-12-01T19:21:26.164Z,98.42
2022-12-01T19:23:53.938Z,97.62
2022-12-01T19:26:22.364Z,98.28
2022-12-01T19:28:50.349Z,98.02
2022-12-01T19:31:22.952Z,98.06
2022-12-01T19:33:50.971Z,98.46
2022-12-01T19:36:20.453Z,97.43
2022-12-01T19:38:48.091Z,97.71
2022-12-01T19:41:16.211Z,98.49
2022-12-01T19:43:43.464Z,98.47
2022-12-01T19:46:13.717Z,97.77
2022-12-01T19:48:41.205Z,97.60
2022-12-01T19:51:15.325Z,98.72
2022-12-01T19:53:42.293Z,98.06
2022-12-01T19:56:09.747Z,97.55
2022-12-01T19:58:36.810Z,97.86
2022-12-01T20:01:11.323Z,98.00
2022-12-01T20:03:39.203Z,98.13
2022-12-01T20:06:09.204Z,98.45
2022-12-01T20:08:37.061Z,97.21
2022-12-01T20:11:05.100Z,97.58
2022-12-01T20:13:38.371Z,97.49
2022-12-01T20:16:10.763Z,98.60
2022-12-01T20:18:38.756Z,97.78
2022-12-01T20:21:17.247Z,97.82
2022-12-01T20:23:49.490Z,98.36
2022-12-01T20:26:18.576Z,97.53
2022-12-01T20:28:48.363Z,98.45
2022-12-01T20:31:22.972Z,97.79
2022-12-01T20:33:51.425Z,98.13
2022-12-01T20:36:18.543Z,98.70
2022-12-01T20:38:46.328Z,98.74
2022-12-01T20:41:13.795Z,98.69
2022-12-01T20:43:41.242Z,98.14
2022-12-01T20:46:08.498Z,97.79
2022-12-01T20:48:35.613Z,98.25
2022-12-01T20:51:04.566Z,98.90
2022-12-01T20:53:32.341Z,98.09
2022-12-01T20:56:06.508Z,98.30
2022-12-01T20:58:37.487Z,97.92
2022-12-01T21:01:14.885Z,98.27
2022-12-01T21:03:43.900Z,97.99
2022-12-01T21:06:12.745Z,97.95
2022-12-01T21:08:41.371Z,97.58
2022-12-01T21:11:19.240Z,98.83
2022-12-01T21:13:47.066Z,98.34
2022-12-01T21:16:19.103Z,98.75
2022-12-01T21:19:06.537Z,98.14
2022-12-01T21:21:40.288Z,98.74
2022-12-01T21:24:22.191Z,97.96
2022-12-01T21:27:12.848Z,97.88
2022-12-01T21:29:43.706Z,98.38
2022-12-01T21:32:27.263Z,98.37
2022-12-01T21:35:00.407Z,98.52
2022-12-01T21:37:28.611Z,97.71
2022-12-01T21:39:57.056Z,98.58
2022-12-01T21:42:27.254Z,98.73
2022-12-01T21:44:56.131Z,97.57
2022-12-01T21:47:25.856Z,98.35
2022-12-01T21:49:56.271Z,99.06
2022-12-01T21:52:30.093Z,98.17
2022-12-01T21:55:09.270Z,98.36
2022-12-01T21:57:45.350Z,98.40
2022-12-01T22:00:35.101Z,98.31
2022-12-01T22:03:08.024Z,99.13
2022-12-01T22:05:40.931Z,98.18
2022-12-01T22:08:15.540Z,98.29
2022-12-01T22:10:58.962Z,98.45
2022-12-01T22:14:04.379Z,97.88
2022-12-01T22:16:33.524Z,98.46
2022-12-01T22:19:10.414Z,98.32
2022-12-01T22:21:45.442Z,98.61
2022-12-01T22:24:45.705Z,99.46
2022-12-01T22:27:36.972Z,98.02
2022-12-01T22:30:07.380Z,99.10
2022-12-01T22:32:38.453Z,98.75
2022-12-01T22:35:28.005Z,99.34
2022-12-01T22:38:12.984Z,98.95
2022-12-01T22:40:57.348Z,98.76
2022-12-01T22:43:27.726Z,99.22
2022-12-01T22:46:17.609Z,98.27
2022-12-01T22:48:55.218Z,99.64
2022-12-01T22:51:30.019Z,99.48
2022-12-01T22:54:01.640Z,98.99
2022-12-01T22:56:41.624Z,99.32
2022-12-01T22:59:14.589Z,99.20
2022-12-01T23:01:56.007Z,99.52
2022-12-01T23:04:23.002Z,98.73
2022-12-01T23:06:55.840Z,98.35
2022-12-01T23:09:26.447Z,99.76
2022-12-01T23:11:59.824Z,99.34
2022-12-01T23:14:27.646Z,98.90
2022-12-01T23:17:06.957Z,98.67
2022-12-01T23:19:34.778Z,99.07
2022-12-01T23:22:02.185Z,99.26
2022-12-01T23:24:33.699Z,99.07
2022-12-01T23:27:01.539Z,98.48
2022-12-01T23:29:30.208Z,99.38
2022-12-01T23:31:57.147Z,99.10
2022-12-01T23:34:24.021Z,98.30
2022-12-01T23:36:51.145Z,98.86
2022-12-01T23:39:19.123Z,98.41
2022-12-01T23:41:48.898Z,98.83
2022-12-01T23:44:42.736Z,98.42
2022-12-01T23:47:19.884Z,99.12
2022-12-01T23:49:48.405Z,98.27
2022-12-01T23:52:20.196Z,98.68
2022-12-01T23:54:47.483Z,98.35
2022-12-01T23:57:23.814Z,98.56
2022-12-01T23:59:55.274Z,98.89
